sensor_id;sensor_type;location;lat;lon;timestamp;P1;durP1;ratioP1;P2;durP2;ratioP2
21162;SDS011;10739;52.198;20.908;2023-05-02T00:02:43;12.77;;;6.53;;
21162;SDS011;10739;52.198;20.908;2023-05-02T00:05:30;13.85;;;6.03;;
21162;SDS011;10739;52.198;20.908;2023-05-02T00:08:16;13.07;;;6.18;;
21162;SDS011;10739;52.198;20.908;2023-05-02T00:11:03;10.82;;;6.07;;
21162;SDS011;10739;52.198;20.908;2023-05-02T00:13:49;8.30;;;5.38;;
21162;SDS011;10739;52.198;20.908;2023-05-02T00:16:36;14.15;;;5.97;;
21162;SDS011;10739;52.198;20.908;2023-05-02T00:19:22;13.30;;;5.88;;
21162;SDS011;10739;52.198;20.908;2023-05-02T00:22:08;11.93;;;5.80;;
21162;SDS011;10739;52.198;20.908;2023-05-02T00:24:55;13.23;;;6.57;;
21162;SDS011;10739;52.198;20.908;2023-05-02T00:27:43;13.10;;;5.97;;
21162;SDS011;10739;52.198;20.908;2023-05-02T00:30:31;11.38;;;5.80;;
21162;SDS011;10739;52.198;20.908;2023-05-02T00:33:17;13.35;;;5.93;;
21162;SDS011;10739;52.198;20.908;2023-05-02T00:36:03;9.85;;;5.65;;
21162;SDS011;10739;52.198;20.908;2023-05-02T00:38:57;16.48;;;5.90;;
21162;SDS011;10739;52.198;20.908;2023-05-02T00:41:43;14.73;;;6.72;;
21162;SDS011;10739;52.198;20.908;2023-05-02T00:44:29;12.10;;;5.90;;
21162;SDS011;10739;52.198;20.908;2023-05-02T00:47:16;16.80;;;6.40;;
21162;SDS011;10739;52.198;20.908;2023-05-02T00:50:03;13.70;;;5.63;;
21162;SDS011;10739;52.198;20.908;2023-05-02T00:52:50;18.50;;;6.35;;
21162;SDS011;10739;52.198;20.908;2023-05-02T00:55:40;12.43;;;6.40;;
21162;SDS011;10739;52.198;20.908;2023-05-02T00:58:26;11.98;;;5.75;;
21162;SDS011;10739;52.198;20.908;2023-05-02T01:15:12;15.23;;;5.65;;
21162;SDS011;10739;52.198;20.908;2023-05-02T01:18:05;11.25;;;5.43;;
21162;SDS011;10739;52.198;20.908;2023-05-02T01:21:02;10.05;;;5.88;;
21162;SDS011;10739;52.198;20.908;2023-05-02T01:23:57;12.82;;;6.05;;
21162;SDS011;10739;52.198;20.908;2023-05-02T01:30:16;12.02;;;5.60;;
21162;SDS011;10739;52.198;20.908;2023-05-02T01:33:05;14.90;;;5.50;;
21162;SDS011;10739;52.198;20.908;2023-05-02T01:35:56;12.77;;;5.65;;
21162;SDS011;10739;52.198;20.908;2023-05-02T01:38:46;11.75;;;6.20;;
21162;SDS011;10739;52.198;20.908;2023-05-02T01:41:35;10.80;;;5.32;;
21162;SDS011;10739;52.198;20.908;2023-05-02T01:44:23;11.50;;;5.10;;
21162;SDS011;10739;52.198;20.908;2023-05-02T01:47:11;12.40;;;6.43;;
21162;SDS011;10739;52.198;20.908;2023-05-02T01:49:59;9.82;;;5.13;;
21162;SDS011;10739;52.198;20.908;2023-05-02T01:52:48;9.65;;;5.25;;
21162;SDS011;10739;52.198;20.908;2023-05-02T01:55:38;10.25;;;5.13;;
21162;SDS011;10739;52.198;20.908;2023-05-02T01:58:29;9.63;;;5.50;;
21162;SDS011;10739;52.198;20.908;2023-05-02T02:01:18;12.93;;;5.30;;
21162;SDS011;10739;52.198;20.908;2023-05-02T02:04:07;12.98;;;5.32;;
21162;SDS011;10739;52.198;20.908;2023-05-02T02:06:59;11.82;;;5.45;;
21162;SDS011;10739;52.198;20.908;2023-05-02T02:09:51;9.07;;;5.10;;
21162;SDS011;10739;52.198;20.908;2023-05-02T02:12:39;10.82;;;5.25;;
21162;SDS011;10739;52.198;20.908;2023-05-02T02:15:30;9.70;;;5.22;;
21162;SDS011;10739;52.198;20.908;2023-05-02T02:18:21;11.48;;;5.32;;
21162;SDS011;10739;52.198;20.908;2023-05-02T02:21:12;8.27;;;4.85;;
21162;SDS011;10739;52.198;20.908;2023-05-02T02:24:05;13.07;;;5.68;;
21162;SDS011;10739;52.198;20.908;2023-05-02T02:26:53;12.30;;;5.35;;
21162;SDS011;10739;52.198;20.908;2023-05-02T02:29:39;14.75;;;5.50;;
21162;SDS011;10739;52.198;20.908;2023-05-02T02:32:25;10.40;;;5.47;;
21162;SDS011;10739;52.198;20.908;2023-05-02T02:35:12;11.27;;;5.10;;
21162;SDS011;10739;52.198;20.908;2023-05-02T02:38:06;11.02;;;5.43;;
21162;SDS011;10739;52.198;20.908;2023-05-02T02:41:22;10.27;;;4.70;;
21162;SDS011;10739;52.198;20.908;2023-05-02T02:47:35;11.98;;;5.85;;
21162;SDS011;10739;52.198;20.908;2023-05-02T02:57:03;13.02;;;5.05;;
21162;SDS011;10739;52.198;20.908;2023-05-02T03:00:01;10.43;;;5.47;;
21162;SDS011;10739;52.198;20.908;2023-05-02T03:03:00;12.02;;;4.93;;
21162;SDS011;10739;52.198;20.908;2023-05-02T03:05:46;12.02;;;6.15;;
21162;SDS011;10739;52.198;20.908;2023-05-02T03:08:40;10.70;;;5.30;;
21162;SDS011;10739;52.198;20.908;2023-05-02T03:11:28;11.57;;;5.88;;
21162;SDS011;10739;52.198;20.908;2023-05-02T03:14:14;10.73;;;5.70;;
21162;SDS011;10739;52.198;20.908;2023-05-02T03:17:01;14.52;;;5.47;;
21162;SDS011;10739;52.198;20.908;2023-05-02T03:19:48;16.58;;;5.38;;
21162;SDS011;10739;52.198;20.908;2023-05-02T03:22:34;11.00;;;5.28;;
21162;SDS011;10739;52.198;20.908;2023-05-02T03:25:20;12.48;;;5.30;;
21162;SDS011;10739;52.198;20.908;2023-05-02T03:28:06;9.15;;;4.43;;
21162;SDS011;10739;52.198;20.908;2023-05-02T03:30:53;11.25;;;5.30;;
21162;SDS011;10739;52.198;20.908;2023-05-02T03:33:39;13.95;;;5.72;;
21162;SDS011;10739;52.198;20.908;2023-05-02T03:36:25;13.77;;;5.30;;
21162;SDS011;10739;52.198;20.908;2023-05-02T03:39:12;13.52;;;5.72;;
21162;SDS011;10739;52.198;20.908;2023-05-02T03:41:58;11.63;;;5.50;;
21162;SDS011;10739;52.198;20.908;2023-05-02T03:44:45;9.90;;;5.47;;
21162;SDS011;10739;52.198;20.908;2023-05-02T03:47:32;13.18;;;5.75;;
21162;SDS011;10739;52.198;20.908;2023-05-02T03:50:18;12.07;;;5.00;;
21162;SDS011;10739;52.198;20.908;2023-05-02T03:53:05;10.23;;;5.05;;
21162;SDS011;10739;52.198;20.908;2023-05-02T03:55:52;17.17;;;5.15;;
21162;SDS011;10739;52.198;20.908;2023-05-02T03:58:39;14.80;;;5.80;;
21162;SDS011;10739;52.198;20.908;2023-05-02T04:01:25;13.90;;;5.68;;
21162;SDS011;10739;52.198;20.908;2023-05-02T04:04:12;13.82;;;6.28;;
21162;SDS011;10739;52.198;20.908;2023-05-02T04:06:58;12.40;;;4.97;;
21162;SDS011;10739;52.198;20.908;2023-05-02T04:09:44;15.05;;;5.63;;
21162;SDS011;10739;52.198;20.908;2023-05-02T04:12:31;9.88;;;5.35;;
21162;SDS011;10739;52.198;20.908;2023-05-02T04:15:17;9.75;;;5.03;;
21162;SDS011;10739;52.198;20.908;2023-05-02T04:18:03;16.42;;;5.15;;
21162;SDS011;10739;52.198;20.908;2023-05-02T04:20:49;10.00;;;5.32;;
21162;SDS011;10739;52.198;20.908;2023-05-02T04:23:36;8.88;;;5.28;;
21162;SDS011;10739;52.198;20.908;2023-05-02T04:26:22;15.88;;;5.57;;
21162;SDS011;10739;52.198;20.908;2023-05-02T04:29:08;11.32;;;5.43;;
21162;SDS011;10739;52.198;20.908;2023-05-02T04:31:55;17.63;;;4.97;;
21162;SDS011;10739;52.198;20.908;2023-05-02T04:34:41;13.23;;;5.20;;
21162;SDS011;10739;52.198;20.908;2023-05-02T04:37:27;16.33;;;5.65;;
21162;SDS011;10739;52.198;20.908;2023-05-02T04:40:14;12.85;;;5.50;;
21162;SDS011;10739;52.198;20.908;2023-05-02T04:43:00;11.65;;;5.30;;
21162;SDS011;10739;52.198;20.908;2023-05-02T04:45:47;11.18;;;5.60;;
21162;SDS011;10739;52.198;20.908;2023-05-02T04:48:33;7.05;;;4.80;;
21162;SDS011;10739;52.198;20.908;2023-05-02T04:51:19;10.30;;;5.05;;
21162;SDS011;10739;52.198;20.908;2023-05-02T04:54:06;10.80;;;5.45;;
21162;SDS011;10739;52.198;20.908;2023-05-02T04:56:52;10.63;;;5.60;;
21162;SDS011;10739;52.198;20.908;2023-05-02T04:59:39;10.32;;;5.30;;
21162;SDS011;10739;52.198;20.908;2023-05-02T05:02:25;11.95;;;5.85;;
21162;SDS011;10739;52.198;20.908;2023-05-02T05:05:12;8.15;;;4.70;;
21162;SDS011;10739;52.198;20.908;2023-05-02T05:07:58;11.27;;;5.43;;
21162;SDS011;10739;52.198;20.908;2023-05-02T05:10:45;15.70;;;5.50;;
21162;SDS011;10739;52.198;20.908;2023-05-02T05:13:31;11.15;;;5.20;;
21162;SDS011;10739;52.198;20.908;2023-05-02T05:16:17;15.00;;;5.10;;
21162;SDS011;10739;52.198;20.908;2023-05-02T05:19:04;16.00;;;6.97;;
21162;SDS011;10739;52.198;20.908;2023-05-02T05:21:50;13.27;;;6.03;;
21162;SDS011;10739;52.198;20.908;2023-05-02T05:24:36;10.90;;;6.32;;
21162;SDS011;10739;52.198;20.908;2023-05-02T05:27:23;9.75;;;5.60;;
21162;SDS011;10739;52.198;20.908;2023-05-02T05:30:10;11.07;;;5.47;;
21162;SDS011;10739;52.198;20.908;2023-05-02T05:32:56;22.50;;;6.05;;
21162;SDS011;10739;52.198;20.908;2023-05-02T05:35:45;14.88;;;5.47;;
21162;SDS011;10739;52.198;20.908;2023-05-02T05:38:32;13.25;;;6.20;;
21162;SDS011;10739;52.198;20.908;2023-05-02T05:41:18;16.15;;;6.32;;
21162;SDS011;10739;52.198;20.908;2023-05-02T05:44:06;14.57;;;6.63;;
21162;SDS011;10739;52.198;20.908;2023-05-02T05:46:52;10.30;;;5.15;;
21162;SDS011;10739;52.198;20.908;2023-05-02T05:49:38;14.65;;;5.95;;
21162;SDS011;10739;52.198;20.908;2023-05-02T05:52:25;9.20;;;5.47;;
21162;SDS011;10739;52.198;20.908;2023-05-02T05:55:12;10.45;;;5.78;;
21162;SDS011;10739;52.198;20.908;2023-05-02T05:57:58;12.57;;;5.82;;
21162;SDS011;10739;52.198;20.908;2023-05-02T06:00:44;11.38;;;6.15;;
21162;SDS011;10739;52.198;20.908;2023-05-02T06:03:31;17.30;;;5.88;;
21162;SDS011;10739;52.198;20.908;2023-05-02T06:06:17;10.50;;;5.55;;
21162;SDS011;10739;52.198;20.908;2023-05-02T06:09:03;12.43;;;5.88;;
21162;SDS011;10739;52.198;20.908;2023-05-02T06:11:49;10.55;;;5.07;;
21162;SDS011;10739;52.198;20.908;2023-05-02T06:14:36;9.70;;;4.43;;
21162;SDS011;10739;52.198;20.908;2023-05-02T06:17:22;10.73;;;5.38;;
21162;SDS011;10739;52.198;20.908;2023-05-02T06:20:08;9.40;;;5.22;;
21162;SDS011;10739;52.198;20.908;2023-05-02T06:22:55;10.32;;;5.63;;
21162;SDS011;10739;52.198;20.908;2023-05-02T06:25:41;12.05;;;5.90;;
21162;SDS011;10739;52.198;20.908;2023-05-02T06:28:28;10.32;;;5.07;;
21162;SDS011;10739;52.198;20.908;2023-05-02T06:31:15;8.27;;;4.63;;
21162;SDS011;10739;52.198;20.908;2023-05-02T06:34:01;14.40;;;5.10;;
21162;SDS011;10739;52.198;20.908;2023-05-02T06:36:48;6.97;;;4.85;;
21162;SDS011;10739;52.198;20.908;2023-05-02T06:39:38;8.48;;;4.97;;
21162;SDS011;10739;52.198;20.908;2023-05-02T06:42:25;9.07;;;4.65;;
21162;SDS011;10739;52.198;20.908;2023-05-02T06:45:11;8.32;;;4.25;;
21162;SDS011;10739;52.198;20.908;2023-05-02T06:47:57;7.78;;;4.40;;
21162;SDS011;10739;52.198;20.908;2023-05-02T06:50:44;14.15;;;5.88;;
21162;SDS011;10739;52.198;20.908;2023-05-02T06:53:30;6.18;;;4.28;;
21162;SDS011;10739;52.198;20.908;2023-05-02T06:56:17;8.77;;;4.28;;
21162;SDS011;10739;52.198;20.908;2023-05-02T06:59:03;6.85;;;3.90;;
21162;SDS011;10739;52.198;20.908;2023-05-02T07:01:50;7.32;;;4.03;;
21162;SDS011;10739;52.198;20.908;2023-05-02T07:04:36;9.07;;;4.57;;
21162;SDS011;10739;52.198;20.908;2023-05-02T07:07:22;8.68;;;4.40;;
21162;SDS011;10739;52.198;20.908;2023-05-02T07:10:09;7.88;;;4.18;;
21162;SDS011;10739;52.198;20.908;2023-05-02T07:12:56;10.45;;;4.57;;
21162;SDS011;10739;52.198;20.908;2023-05-02T07:15:42;7.85;;;4.25;;
21162;SDS011;10739;52.198;20.908;2023-05-02T07:18:29;10.43;;;5.63;;
21162;SDS011;10739;52.198;20.908;2023-05-02T07:21:15;7.72;;;4.13;;
21162;SDS011;10739;52.198;20.908;2023-05-02T07:24:03;6.55;;;3.65;;
21162;SDS011;10739;52.198;20.908;2023-05-02T07:26:50;4.95;;;2.97;;
21162;SDS011;10739;52.198;20.908;2023-05-02T07:29:36;4.43;;;2.53;;
21162;SDS011;10739;52.198;20.908;2023-05-02T07:32:23;9.82;;;3.45;;
21162;SDS011;10739;52.198;20.908;2023-05-02T07:35:10;14.23;;;2.88;;
21162;SDS011;10739;52.198;20.908;2023-05-02T07:37:57;6.18;;;2.65;;
21162;SDS011;10739;52.198;20.908;2023-05-02T07:40:43;6.47;;;3.03;;
21162;SDS011;10739;52.198;20.908;2023-05-02T07:43:31;6.00;;;2.92;;
21162;SDS011;10739;52.198;20.908;2023-05-02T07:46:17;3.13;;;2.50;;
21162;SDS011;10739;52.198;20.908;2023-05-02T07:49:03;12.07;;;2.53;;
21162;SDS011;10739;52.198;20.908;2023-05-02T07:51:50;6.47;;;2.85;;
21162;SDS011;10739;52.198;20.908;2023-05-02T07:54:36;5.15;;;2.85;;
21162;SDS011;10739;52.198;20.908;2023-05-02T07:57:22;5.32;;;3.00;;
21162;SDS011;10739;52.198;20.908;2023-05-02T08:00:10;6.53;;;2.83;;
21162;SDS011;10739;52.198;20.908;2023-05-02T08:02:57;4.75;;;3.20;;
21162;SDS011;10739;52.198;20.908;2023-05-02T08:05:44;4.22;;;2.80;;
21162;SDS011;10739;52.198;20.908;2023-05-02T08:08:30;7.60;;;2.78;;
21162;SDS011;10739;52.198;20.908;2023-05-02T08:11:16;5.25;;;2.92;;
21162;SDS011;10739;52.198;20.908;2023-05-02T08:14:04;7.05;;;3.00;;
21162;SDS011;10739;52.198;20.908;2023-05-02T08:16:50;9.57;;;3.30;;
21162;SDS011;10739;52.198;20.908;2023-05-02T08:19:37;9.05;;;3.78;;
21162;SDS011;10739;52.198;20.908;2023-05-02T08:22:23;6.43;;;3.63;;
21162;SDS011;10739;52.198;20.908;2023-05-02T08:25:09;4.65;;;3.13;;
21162;SDS011;10739;52.198;20.908;2023-05-02T08:27:55;7.78;;;3.30;;
21162;SDS011;10739;52.198;20.908;2023-05-02T08:30:42;7.72;;;3.90;;
21162;SDS011;10739;52.198;20.908;2023-05-02T08:33:29;10.75;;;3.80;;
21162;SDS011;10739;52.198;20.908;2023-05-02T08:36:17;7.55;;;3.70;;
21162;SDS011;10739;52.198;20.908;2023-05-02T08:39:04;5.10;;;3.60;;
21162;SDS011;10739;52.198;20.908;2023-05-02T08:41:52;5.35;;;3.63;;
21162;SDS011;10739;52.198;20.908;2023-05-02T08:44:38;14.15;;;4.20;;
21162;SDS011;10739;52.198;20.908;2023-05-02T08:47:25;6.85;;;4.10;;
21162;SDS011;10739;52.198;20.908;2023-05-02T08:50:15;6.05;;;3.92;;
21162;SDS011;10739;52.198;20.908;2023-05-02T08:53:04;7.47;;;4.05;;
21162;SDS011;10739;52.198;20.908;2023-05-02T08:55:51;6.97;;;3.90;;
21162;SDS011;10739;52.198;20.908;2023-05-02T08:58:39;9.75;;;4.10;;
21162;SDS011;10739;52.198;20.908;2023-05-02T09:01:27;7.63;;;3.92;;
21162;SDS011;10739;52.198;20.908;2023-05-02T09:04:17;9.50;;;4.10;;
21162;SDS011;10739;52.198;20.908;2023-05-02T09:07:08;9.00;;;3.73;;
21162;SDS011;10739;52.198;20.908;2023-05-02T09:09:55;10.48;;;4.32;;
21162;SDS011;10739;52.198;20.908;2023-05-02T09:12:42;4.95;;;3.85;;
21162;SDS011;10739;52.198;20.908;2023-05-02T09:15:28;9.18;;;3.92;;
21162;SDS011;10739;52.198;20.908;2023-05-02T09:18:18;7.53;;;4.20;;
21162;SDS011;10739;52.198;20.908;2023-05-02T09:21:06;7.82;;;3.90;;
21162;SDS011;10739;52.198;20.908;2023-05-02T09:24:15;12.52;;;4.35;;
21162;SDS011;10739;52.198;20.908;2023-05-02T09:27:04;7.10;;;4.35;;
21162;SDS011;10739;52.198;20.908;2023-05-02T09:29:50;9.05;;;4.85;;
21162;SDS011;10739;52.198;20.908;2023-05-02T09:32:43;7.10;;;4.65;;
21162;SDS011;10739;52.198;20.908;2023-05-02T09:35:31;5.22;;;4.20;;
21162;SDS011;10739;52.198;20.908;2023-05-02T09:38:18;9.35;;;4.60;;
21162;SDS011;10739;52.198;20.908;2023-05-02T09:41:05;7.93;;;4.85;;
21162;SDS011;10739;52.198;20.908;2023-05-02T09:43:55;6.50;;;5.03;;
21162;SDS011;10739;52.198;20.908;2023-05-02T09:46:43;13.85;;;4.82;;
21162;SDS011;10739;52.198;20.908;2023-05-02T09:49:44;7.47;;;4.78;;
21162;SDS011;10739;52.198;20.908;2023-05-02T09:52:31;9.35;;;4.90;;
21162;SDS011;10739;52.198;20.908;2023-05-02T09:55:20;11.07;;;4.90;;
21162;SDS011;10739;52.198;20.908;2023-05-02T09:58:07;8.13;;;5.47;;
21162;SDS011;10739;52.198;20.908;2023-05-02T10:01:07;8.50;;;4.90;;
21162;SDS011;10739;52.198;20.908;2023-05-02T10:04:00;11.48;;;5.55;;
21162;SDS011;10739;52.198;20.908;2023-05-02T10:06:49;8.05;;;4.80;;
21162;SDS011;10739;52.198;20.908;2023-05-02T10:09:42;11.98;;;5.60;;
21162;SDS011;10739;52.198;20.908;2023-05-02T10:12:30;11.85;;;5.70;;
21162;SDS011;10739;52.198;20.908;2023-05-02T10:15:18;10.65;;;5.30;;
21162;SDS011;10739;52.198;20.908;2023-05-02T10:18:11;12.02;;;5.53;;
21162;SDS011;10739;52.198;20.908;2023-05-02T10:21:03;9.07;;;5.55;;
21162;SDS011;10739;52.198;20.908;2023-05-02T10:23:53;11.13;;;5.50;;
21162;SDS011;10739;52.198;20.908;2023-05-02T10:26:40;7.80;;;5.32;;
21162;SDS011;10739;52.198;20.908;2023-05-02T10:29:28;7.68;;;4.80;;
21162;SDS011;10739;52.198;20.908;2023-05-02T10:32:17;10.45;;;5.68;;
21162;SDS011;10739;52.198;20.908;2023-05-02T10:35:06;7.15;;;5.13;;
21162;SDS011;10739;52.198;20.908;2023-05-02T10:37:53;14.77;;;5.82;;
21162;SDS011;10739;52.198;20.908;2023-05-02T10:40:41;8.57;;;5.28;;
21162;SDS011;10739;52.198;20.908;2023-05-02T10:43:40;10.55;;;5.80;;
21162;SDS011;10739;52.198;20.908;2023-05-02T10:46:34;11.00;;;5.60;;
21162;SDS011;10739;52.198;20.908;2023-05-02T10:49:27;10.38;;;5.97;;
21162;SDS011;10739;52.198;20.908;2023-05-02T10:52:33;14.88;;;5.55;;
21162;SDS011;10739;52.198;20.908;2023-05-02T10:55:25;12.45;;;6.20;;
21162;SDS011;10739;52.198;20.908;2023-05-02T11:04:24;12.40;;;6.25;;
21162;SDS011;10739;52.198;20.908;2023-05-02T11:13:04;19.52;;;8.27;;
21162;SDS011;10739;52.198;20.908;2023-05-02T11:21:45;14.88;;;8.73;;
21162;SDS011;10739;52.198;20.908;2023-05-02T11:24:41;14.90;;;9.70;;
21162;SDS011;10739;52.198;20.908;2023-05-02T11:30:38;13.27;;;8.57;;
21162;SDS011;10739;52.198;20.908;2023-05-02T11:33:29;13.90;;;8.80;;
21162;SDS011;10739;52.198;20.908;2023-05-02T11:36:26;12.02;;;9.00;;
21162;SDS011;10739;52.198;20.908;2023-05-02T11:39:19;14.52;;;8.85;;
21162;SDS011;10739;52.198;20.908;2023-05-02T11:42:09;10.60;;;8.63;;
21162;SDS011;10739;52.198;20.908;2023-05-02T11:44:59;11.38;;;7.72;;
21162;SDS011;10739;52.198;20.908;2023-05-02T11:47:45;9.05;;;7.15;;
21162;SDS011;10739;52.198;20.908;2023-05-02T11:50:40;9.55;;;6.88;;
21162;SDS011;10739;52.198;20.908;2023-05-02T11:53:39;10.38;;;7.07;;
21162;SDS011;10739;52.198;20.908;2023-05-02T11:56:25;9.88;;;7.90;;
21162;SDS011;10739;52.198;20.908;2023-05-02T11:59:12;13.07;;;9.27;;
21162;SDS011;10739;52.198;20.908;2023-05-02T12:01:58;13.65;;;9.50;;
21162;SDS011;10739;52.198;20.908;2023-05-02T12:04:45;12.13;;;9.75;;
21162;SDS011;10739;52.198;20.908;2023-05-02T12:07:41;18.33;;;9.88;;
21162;SDS011;10739;52.198;20.908;2023-05-02T12:10:36;15.95;;;9.43;;
21162;SDS011;10739;52.198;20.908;2023-05-02T12:13:23;15.75;;;10.30;;
21162;SDS011;10739;52.198;20.908;2023-05-02T12:16:11;16.05;;;10.52;;
21162;SDS011;10739;52.198;20.908;2023-05-02T12:18:58;19.63;;;10.20;;
21162;SDS011;10739;52.198;20.908;2023-05-02T12:21:45;17.00;;;10.00;;
21162;SDS011;10739;52.198;20.908;2023-05-02T12:24:32;13.13;;;10.20;;
21162;SDS011;10739;52.198;20.908;2023-05-02T12:27:20;12.38;;;9.55;;
21162;SDS011;10739;52.198;20.908;2023-05-02T12:30:07;13.68;;;9.18;;
21162;SDS011;10739;52.198;20.908;2023-05-02T12:32:56;19.80;;;9.27;;
21162;SDS011;10739;52.198;20.908;2023-05-02T12:35:48;12.65;;;9.13;;
21162;SDS011;10739;52.198;20.908;2023-05-02T12:38:35;12.80;;;8.43;;
21162;SDS011;10739;52.198;20.908;2023-05-02T12:41:31;14.90;;;6.97;;
21162;SDS011;10739;52.198;20.908;2023-05-02T12:44:34;9.90;;;6.18;;
21162;SDS011;10739;52.198;20.908;2023-05-02T12:47:23;7.88;;;6.30;;
21162;SDS011;10739;52.198;20.908;2023-05-02T12:50:10;9.48;;;6.00;;
21162;SDS011;10739;52.198;20.908;2023-05-02T12:52:57;13.00;;;5.85;;
21162;SDS011;10739;52.198;20.908;2023-05-02T12:55:44;14.70;;;6.25;;
21162;SDS011;10739;52.198;20.908;2023-05-02T12:58:39;13.18;;;6.90;;
21162;SDS011;10739;52.198;20.908;2023-05-02T13:01:35;13.18;;;7.43;;
21162;SDS011;10739;52.198;20.908;2023-05-02T13:04:32;10.05;;;6.53;;
21162;SDS011;10739;52.198;20.908;2023-05-02T13:07:23;12.55;;;7.15;;
21162;SDS011;10739;52.198;20.908;2023-05-02T13:10:09;10.45;;;6.65;;
21162;SDS011;10739;52.198;20.908;2023-05-02T13:12:56;11.52;;;7.13;;
21162;SDS011;10739;52.198;20.908;2023-05-02T13:15:43;12.80;;;6.72;;
21162;SDS011;10739;52.198;20.908;2023-05-02T13:18:29;11.05;;;5.90;;
21162;SDS011;10739;52.198;20.908;2023-05-02T13:21:15;9.68;;;5.53;;
21162;SDS011;10739;52.198;20.908;2023-05-02T13:24:01;8.52;;;5.32;;
21162;SDS011;10739;52.198;20.908;2023-05-02T13:26:48;11.68;;;5.72;;
21162;SDS011;10739;52.198;20.908;2023-05-02T13:29:35;8.13;;;6.10;;
21162;SDS011;10739;52.198;20.908;2023-05-02T13:32:22;9.10;;;5.90;;
21162;SDS011;10739;52.198;20.908;2023-05-02T13:35:08;6.97;;;5.50;;
21162;SDS011;10739;52.198;20.908;2023-05-02T13:37:58;10.18;;;6.00;;
21162;SDS011;10739;52.198;20.908;2023-05-02T13:40:44;8.93;;;5.63;;
21162;SDS011;10739;52.198;20.908;2023-05-02T13:43:30;8.95;;;5.35;;
21162;SDS011;10739;52.198;20.908;2023-05-02T13:46:17;14.05;;;5.95;;
21162;SDS011;10739;52.198;20.908;2023-05-02T13:49:13;8.23;;;4.70;;
21162;SDS011;10739;52.198;20.908;2023-05-02T13:51:59;8.57;;;5.53;;
21162;SDS011;10739;52.198;20.908;2023-05-02T13:54:45;13.10;;;5.63;;
21162;SDS011;10739;52.198;20.908;2023-05-02T13:57:32;7.32;;;5.05;;
21162;SDS011;10739;52.198;20.908;2023-05-02T14:00:18;10.85;;;6.30;;
21162;SDS011;10739;52.198;20.908;2023-05-02T14:03:05;11.40;;;5.53;;
21162;SDS011;10739;52.198;20.908;2023-05-02T14:05:51;8.98;;;5.88;;
21162;SDS011;10739;52.198;20.908;2023-05-02T14:08:38;12.40;;;5.68;;
21162;SDS011;10739;52.198;20.908;2023-05-02T14:11:24;9.05;;;6.22;;
21162;SDS011;10739;52.198;20.908;2023-05-02T14:14:11;11.10;;;6.07;;
21162;SDS011;10739;52.198;20.908;2023-05-02T14:16:57;8.35;;;5.53;;
21162;SDS011;10739;52.198;20.908;2023-05-02T14:19:46;9.52;;;5.75;;
21162;SDS011;10739;52.198;20.908;2023-05-02T14:22:33;9.70;;;5.97;;
21162;SDS011;10739;52.198;20.908;2023-05-02T14:25:20;11.45;;;5.68;;
21162;SDS011;10739;52.198;20.908;2023-05-02T14:28:06;9.32;;;5.25;;
21162;SDS011;10739;52.198;20.908;2023-05-02T14:30:52;8.90;;;5.20;;
21162;SDS011;10739;52.198;20.908;2023-05-02T14:33:39;7.90;;;4.90;;
21162;SDS011;10739;52.198;20.908;2023-05-02T14:36:25;8.02;;;5.30;;
21162;SDS011;10739;52.198;20.908;2023-05-02T14:39:12;9.55;;;5.03;;
21162;SDS011;10739;52.198;20.908;2023-05-02T14:41:58;8.85;;;5.18;;
21162;SDS011;10739;52.198;20.908;2023-05-02T14:44:48;12.50;;;5.47;;
21162;SDS011;10739;52.198;20.908;2023-05-02T14:47:35;11.95;;;5.47;;
21162;SDS011;10739;52.198;20.908;2023-05-02T14:50:21;9.45;;;5.50;;
21162;SDS011;10739;52.198;20.908;2023-05-02T14:53:08;9.65;;;5.38;;
21162;SDS011;10739;52.198;20.908;2023-05-02T14:55:54;10.65;;;5.10;;
21162;SDS011;10739;52.198;20.908;2023-05-02T14:58:41;9.10;;;4.93;;
21162;SDS011;10739;52.198;20.908;2023-05-02T15:01:27;9.77;;;5.55;;
21162;SDS011;10739;52.198;20.908;2023-05-02T15:04:15;13.15;;;5.45;;
21162;SDS011;10739;52.198;20.908;2023-05-02T15:07:04;12.60;;;5.35;;
21162;SDS011;10739;52.198;20.908;2023-05-02T15:09:50;6.93;;;4.55;;
21162;SDS011;10739;52.198;20.908;2023-05-02T15:12:36;10.60;;;5.10;;
21162;SDS011;10739;52.198;20.908;2023-05-02T15:15:23;13.73;;;4.90;;
21162;SDS011;10739;52.198;20.908;2023-05-02T15:18:09;9.55;;;4.63;;
21162;SDS011;10739;52.198;20.908;2023-05-02T15:20:56;10.65;;;4.35;;
21162;SDS011;10739;52.198;20.908;2023-05-02T15:23:42;10.80;;;4.78;;
21162;SDS011;10739;52.198;20.908;2023-05-02T15:26:28;10.63;;;5.03;;
21162;SDS011;10739;52.198;20.908;2023-05-02T15:29:15;6.57;;;4.40;;
21162;SDS011;10739;52.198;20.908;2023-05-02T15:32:02;8.25;;;5.10;;
21162;SDS011;10739;52.198;20.908;2023-05-02T15:34:48;10.73;;;5.20;;
21162;SDS011;10739;52.198;20.908;2023-05-02T15:37:34;9.35;;;5.28;;
21162;SDS011;10739;52.198;20.908;2023-05-02T15:40:21;7.85;;;5.32;;
21162;SDS011;10739;52.198;20.908;2023-05-02T15:43:07;10.15;;;5.28;;
21162;SDS011;10739;52.198;20.908;2023-05-02T15:45:54;6.25;;;4.63;;
21162;SDS011;10739;52.198;20.908;2023-05-02T15:48:42;12.00;;;5.95;;
21162;SDS011;10739;52.198;20.908;2023-05-02T15:51:28;9.98;;;5.40;;
21162;SDS011;10739;52.198;20.908;2023-05-02T15:54:15;8.40;;;4.70;;
21162;SDS011;10739;52.198;20.908;2023-05-02T15:57:01;8.50;;;5.00;;
21162;SDS011;10739;52.198;20.908;2023-05-02T15:59:47;9.45;;;4.88;;
21162;SDS011;10739;52.198;20.908;2023-05-02T16:02:34;13.48;;;4.85;;
21162;SDS011;10739;52.198;20.908;2023-05-02T16:05:22;7.70;;;4.97;;
21162;SDS011;10739;52.198;20.908;2023-05-02T16:08:08;10.65;;;5.10;;
21162;SDS011;10739;52.198;20.908;2023-05-02T16:10:55;10.07;;;5.82;;
21162;SDS011;10739;52.198;20.908;2023-05-02T16:13:42;8.10;;;5.15;;
21162;SDS011;10739;52.198;20.908;2023-05-02T16:16:28;13.27;;;5.07;;
21162;SDS011;10739;52.198;20.908;2023-05-02T16:19:15;7.38;;;4.50;;
21162;SDS011;10739;52.198;20.908;2023-05-02T16:22:01;10.27;;;5.20;;
21162;SDS011;10739;52.198;20.908;2023-05-02T16:24:47;10.00;;;5.45;;
21162;SDS011;10739;52.198;20.908;2023-05-02T16:27:34;13.15;;;6.18;;
21162;SDS011;10739;52.198;20.908;2023-05-02T16:30:20;10.93;;;5.53;;
21162;SDS011;10739;52.198;20.908;2023-05-02T16:33:06;7.65;;;5.32;;
21162;SDS011;10739;52.198;20.908;2023-05-02T16:36:01;6.82;;;4.93;;
21162;SDS011;10739;52.198;20.908;2023-05-02T16:38:48;10.93;;;5.10;;
21162;SDS011;10739;52.198;20.908;2023-05-02T16:41:35;8.70;;;4.82;;
21162;SDS011;10739;52.198;20.908;2023-05-02T16:44:22;8.25;;;5.10;;
21162;SDS011;10739;52.198;20.908;2023-05-02T16:47:08;7.43;;;4.65;;
21162;SDS011;10739;52.198;20.908;2023-05-02T16:49:58;9.55;;;5.30;;
21162;SDS011;10739;52.198;20.908;2023-05-02T16:52:45;10.68;;;5.55;;
21162;SDS011;10739;52.198;20.908;2023-05-02T16:55:32;10.15;;;5.82;;
21162;SDS011;10739;52.198;20.908;2023-05-02T16:58:18;11.02;;;5.10;;
21162;SDS011;10739;52.198;20.908;2023-05-02T17:01:04;7.75;;;5.32;;
21162;SDS011;10739;52.198;20.908;2023-05-02T17:03:51;9.35;;;5.50;;
21162;SDS011;10739;52.198;20.908;2023-05-02T17:06:38;9.23;;;5.50;;
21162;SDS011;10739;52.198;20.908;2023-05-02T17:09:24;9.52;;;5.13;;
21162;SDS011;10739;52.198;20.908;2023-05-02T17:12:10;8.27;;;5.40;;
21162;SDS011;10739;52.198;20.908;2023-05-02T17:14:58;9.00;;;5.30;;
21162;SDS011;10739;52.198;20.908;2023-05-02T17:17:45;10.65;;;5.10;;